Time;durP1;ratioP1;P1;durP2;ratioP2;P2;SDS_P1;SDS_P2;PMS_P1;PMS_P2;Temp;Humidity;BMP_temperature;BMP_pressure;BME280_temperature;BME280_humidity;BME280_pressure;Samples;Min_cycle;Max_cycle;Signal;HPM_P1;HPM_P2
2021/03/16 00:00:15;;;;;;;16.00;3.80;;;5.40;99.90;;;6.26;82.05;100928.94;4995455;28;20030;-77
2021/03/16 00:02:41;;;;;;;23.80;4.28;;;5.30;99.90;;;6.25;81.76;100933.69;5007383;28;20026;-78
2021/03/16 00:05:09;;;;;;;19.42;2.95;;;5.30;99.90;;;6.24;82.45;100929.25;5018410;28;20033;-78
2021/03/16 00:07:35;;;;;;;20.40;3.28;;;5.30;99.90;;;6.26;82.63;100940.03;5009673;28;20114;-77
2021/03/16 00:10:01;;;;;;;21.17;3.00;;;5.30;99.90;;;6.26;82.08;100929.75;4998566;28;20126;-76
2021/03/16 00:12:27;;;;;;;16.02;3.72;;;5.30;99.90;;;6.22;82.08;100930.72;4997915;28;20035;-77
2021/03/16 00:14:54;;;;;;;22.92;3.28;;;5.30;99.90;;;6.21;82.86;100935.44;4998564;28;20057;-78
2021/03/16 00:17:20;;;;;;;18.77;3.55;;;5.30;99.90;;;6.18;80.27;100929.72;4998509;28;20022;-77
2021/03/16 00:19:47;;;;;;;25.15;5.25;;;5.30;99.90;;;6.18;80.76;100933.31;4998518;28;20015;-75
2021/03/16 00:22:14;;;;;;;19.48;3.08;;;5.40;99.90;;;6.23;79.30;100944.25;4998470;28;20094;-75
2021/03/16 00:24:40;;;;;;;23.02;3.83;;;5.40;99.90;;;6.32;79.52;100945.09;4997594;28;20035;-80
2021/03/16 00:27:06;;;;;;;24.08;3.55;;;5.50;99.90;;;6.32;79.52;100958.16;4982348;28;20030;-80
2021/03/16 00:29:32;;;;;;;18.77;3.53;;;5.40;99.90;;;6.21;80.61;100949.31;4979935;28;20034;-79
2021/03/16 00:31:58;;;;;;;18.40;3.22;;;5.40;99.90;;;6.20;80.98;100956.00;4978532;28;20030;-78
2021/03/16 00:34:24;;;;;;;16.08;3.20;;;5.40;99.90;;;6.25;81.20;100953.09;4978928;28;20062;-78
2021/03/16 00:36:50;;;;;;;16.25;3.00;;;5.30;99.90;;;6.25;80.68;100955.03;4979994;28;20094;-79
2021/03/16 00:39:19;;;;;;;19.90;3.20;;;5.30;99.90;;;6.22;81.22;100955.69;4980606;28;20023;-80
2021/03/16 00:41:46;;;;;;;20.42;2.67;;;5.30;99.90;;;6.27;80.48;100958.28;4980256;28;20035;-78
2021/03/16 00:44:12;;;;;;;20.20;4.60;;;5.40;99.90;;;6.22;80.39;100962.06;4983190;28;20030;-77
2021/03/16 00:46:38;;;;;;;18.17;3.75;;;5.30;99.90;;;6.25;80.84;100961.41;4996600;28;20035;-76
2021/03/16 00:49:04;;;;;;;14.95;2.63;;;5.30;99.90;;;6.26;80.20;100960.25;4996759;28;20023;-76
2021/03/16 00:51:30;;;;;;;19.63;2.88;;;5.30;99.90;;;6.27;80.46;100967.44;4996988;28;20023;-73
2021/03/16 00:53:56;;;;;;;17.48;3.30;;;5.40;99.90;;;6.26;80.08;100976.91;4997060;28;20046;-75
2021/03/16 00:56:22;;;;;;;16.55;3.42;;;5.40;99.90;;;6.29;79.99;100967.94;4998061;28;20030;-76
2021/03/16 00:58:48;;;;;;;21.83;3.83;;;5.30;99.90;;;6.26;80.58;100976.91;5012757;28;20062;-76
2021/03/16 01:01:14;;;;;;;17.02;2.88;;;5.30;99.90;;;6.22;80.73;100973.16;4996254;28;20050;-78
2021/03/16 01:03:40;;;;;;;17.27;3.25;;;5.30;99.90;;;6.26;81.76;100978.88;4981958;28;20404;-81
2021/03/16 01:06:08;;;;;;;18.25;4.13;;;5.20;99.90;;;6.21;81.00;100977.06;4978676;28;20031;-79
2021/03/16 01:08:34;;;;;;;20.58;4.15;;;5.20;99.90;;;6.25;81.46;100982.78;4994306;28;20143;-80
2021/03/16 01:11:01;;;;;;;26.95;5.20;;;5.20;99.90;;;6.21;81.10;100990.09;4997954;28;20031;-79
2021/03/16 01:13:28;;;;;;;29.30;4.10;;;5.30;99.90;;;6.19;80.48;100984.88;4998157;28;20031;-78
2021/03/16 01:15:54;;;;;;;22.95;3.50;;;5.30;99.90;;;6.20;81.02;100994.00;4998508;28;20228;-79
2021/03/16 01:18:20;;;;;;;15.32;3.72;;;5.30;99.90;;;6.24;80.66;101003.31;5013331;28;20450;-80
2021/03/16 01:20:47;;;;;;;17.33;4.13;;;5.20;99.90;;;6.21;79.96;101001.19;5005549;28;20090;-75
2021/03/16 01:23:13;;;;;;;19.10;4.05;;;5.20;99.90;;;6.18;79.01;100994.34;5015852;28;20046;-77
2021/03/16 01:25:39;;;;;;;20.80;3.78;;;5.30;99.90;;;6.23;78.88;100998.91;4999663;28;20042;-79
2021/03/16 01:28:06;;;;;;;21.80;3.63;;;5.30;99.90;;;6.21;78.55;101002.00;4997352;28;20363;-78
2021/03/16 01:30:33;;;;;;;17.63;3.00;;;5.30;99.90;;;6.21;78.99;100995.66;4997172;28;20050;-78
2021/03/16 01:32:59;;;;;;;18.20;3.40;;;5.20;99.90;;;6.18;77.74;100996.28;4996954;28;20026;-77
2021/03/16 01:35:25;;;;;;;16.42;2.67;;;5.20;99.90;;;6.15;78.26;100996.94;4998779;28;20030;-78
2021/03/16 01:37:58;;;;;;;18.83;3.53;;;5.20;99.90;;;6.13;77.84;100999.22;5013894;28;20034;-78
2021/03/16 01:40:36;;;;;;;21.77;3.50;;;5.20;99.90;;;6.06;77.91;100998.84;5013736;28;20053;-75
2021/03/16 01:43:14;;;;;;;17.73;2.53;;;5.20;99.90;;;6.13;76.92;101008.31;4999395;28;20034;-78
2021/03/16 01:45:44;;;;;;;14.63;3.25;;;5.20;99.90;;;6.05;76.32;101006.34;4998043;28;20046;-77
2021/03/16 01:48:18;;;;;;;14.50;2.88;;;5.20;99.90;;;6.12;76.59;101008.66;4998341;28;20037;-78
2021/03/16 01:50:44;;;;;;;16.38;2.80;;;5.20;99.90;;;6.13;76.36;101011.09;4998569;28;20038;-76
2021/03/16 01:53:11;;;;;;;14.63;2.85;;;5.20;99.90;;;6.13;76.03;101013.09;4999884;28;20471;-78
2021/03/16 01:55:37;;;;;;;18.70;3.00;;;5.20;99.90;;;6.08;77.24;101005.72;4999439;28;20110;-78
2021/03/16 01:58:04;;;;;;;17.55;2.78;;;5.20;99.90;;;6.13;77.31;101016.66;5015001;28;20035;-76
2021/03/16 02:00:40;;;;;;;20.00;3.53;;;5.20;99.90;;;6.16;77.30;101018.00;4997485;28;20109;-78
2021/03/16 02:03:12;;;;;;;18.23;2.97;;;5.20;99.90;;;6.10;77.74;101011.75;4986794;28;20122;-79
2021/03/16 02:05:41;;;;;;;20.02;3.08;;;5.10;99.90;;;6.10;78.43;101019.28;4994514;28;20467;-76
2021/03/16 02:08:52;;;;;;;17.27;3.45;;;5.20;99.90;;;6.09;78.28;101009.31;4983979;28;20494;-78
2021/03/16 02:11:45;;;;;;;14.45;2.83;;;5.10;99.90;;;6.09;78.19;101009.31;5001557;28;20041;-77
2021/03/16 02:14:33;;;;;;;14.63;3.00;;;5.10;99.90;;;6.08;78.48;101010.44;4993655;28;20101;-76
2021/03/16 02:17:16;;;;;;;20.63;2.63;;;5.10;99.90;;;6.05;78.36;101011.06;4980469;28;20111;-78
2021/03/16 02:20:15;;;;;;;17.30;2.72;;;5.10;99.90;;;6.13;77.25;101013.88;4979765;28;20066;-78
2021/03/16 02:22:47;;;;;;;17.77;2.72;;;5.10;99.90;;;6.13;77.31;101005.56;4984512;28;20023;-78
2021/03/16 02:25:49;;;;;;;13.20;2.95;;;5.10;99.90;;;6.10;77.67;101019.28;4981977;28;20394;-79
2021/03/16 02:28:59;;;;;;;16.73;2.60;;;5.10;99.90;;;6.08;77.71;101016.81;4998388;28;20033;-80
2021/03/16 02:31:28;;;;;;;16.90;3.40;;;5.10;99.90;;;6.15;77.33;101025.50;5007955;28;20030;-79
2021/03/16 02:33:57;;;;;;;18.55;3.22;;;5.10;99.90;;;6.16;77.42;101023.53;4998005;28;20034;-79
2021/03/16 02:36:27;;;;;;;14.85;2.80;;;5.10;99.90;;;6.14;77.23;101023.03;4985509;28;20018;-78
2021/03/16 02:38:56;;;;;;;17.75;2.58;;;5.20;99.90;;;6.08;77.02;101022.34;4983814;28;20033;-80
2021/03/16 02:41:26;;;;;;;19.27;3.65;;;5.10;99.90;;;6.09;76.07;101021.22;5004789;28;20026;-79
2021/03/16 02:43:53;;;;;;;19.10;3.45;;;5.20;99.90;;;6.09;76.00;101024.00;4997517;28;20089;-76
2021/03/16 02:46:21;;;;;;;15.20;2.75;;;5.20;99.90;;;6.15;74.36;101033.81;4980540;28;20081;-77
2021/03/16 02:48:49;;;;;;;14.77;3.22;;;5.20;99.90;;;6.20;74.95;101027.28;4981207;28;20508;-78
2021/03/16 02:51:16;;;;;;;21.40;3.22;;;5.20;99.90;;;6.14;75.15;101032.16;4980989;28;20115;-77
2021/03/16 02:53:47;;;;;;;15.25;2.28;;;5.20;99.90;;;6.13;75.62;101030.50;4997882;28;20050;-77
2021/03/16 02:56:15;;;;;;;16.85;2.38;;;5.10;99.90;;;6.15;75.25;101032.97;4998895;28;20011;-79
2021/03/16 02:58:46;;;;;;;17.90;2.58;;;5.20;99.90;;;6.17;74.86;101039.84;5014966;28;20029;-78
2021/03/16 03:01:19;;;;;;;13.82;3.20;;;5.10;99.90;;;6.22;75.34;101041.66;5039282;23;20123;-83
2021/03/16 03:04:50;;;;;;;9.85;2.03;;;5.20;99.90;;;6.21;75.33;101043.63;5030644;28;20030;-83
2021/03/16 03:07:35;;;;;;;18.23;2.75;;;5.20;99.90;;;6.22;76.17;101058.31;4957715;28;20054;-82
2021/03/16 03:10:51;;;;;;;13.70;2.38;;;5.20;99.90;;;6.23;76.46;101051.59;4968810;28;20090;-81
2021/03/16 03:13:18;;;;;;;11.98;1.75;;;5.20;99.90;;;6.16;75.76;101048.50;5000800;28;20046;-82
2021/03/16 03:15:44;;;;;;;14.20;4.03;;;5.20;99.90;;;6.17;74.48;101044.56;5007986;28;20061;-81
2021/03/16 03:18:10;;;;;;;22.05;3.17;;;5.30;99.90;;;6.25;74.54;101050.19;5008482;28;20061;-82
2021/03/16 03:20:37;;;;;;;12.07;2.63;;;5.30;99.90;;;6.19;74.51;101054.22;5007235;28;20030;-82
2021/03/16 03:23:31;;;;;;;17.15;2.90;;;5.30;99.90;;;6.19;73.90;101067.28;5006446;28;20088;-83
2021/03/16 03:26:09;;;;;;;9.52;3.10;;;5.30;99.90;;;6.18;73.78;101066.44;5017827;28;20049;-80
2021/03/16 03:28:42;;;;;;;11.10;2.15;;;5.20;99.90;;;6.23;73.76;101074.63;5017694;28;20065;-83
2021/03/16 03:31:09;;;;;;;17.75;3.05;;;5.30;99.90;;;6.21;74.82;101067.75;4996778;28;20034;-83
2021/03/16 03:33:41;;;;;;;11.25;2.90;;;5.30;99.90;;;6.19;75.38;101070.03;4995519;28;20152;-82
2021/03/16 03:36:09;;;;;;;11.98;2.15;;;5.20;99.90;;;6.19;75.10;101081.16;4994522;28;20185;-83
2021/03/16 03:38:37;;;;;;;19.05;2.55;;;5.20;99.90;;;6.19;75.36;101079.19;4995540;28;20091;-81
2021/03/16 03:41:05;;;;;;;12.38;2.38;;;5.20;99.90;;;6.14;76.26;101072.94;4995990;28;20104;-80
2021/03/16 03:43:35;;;;;;;16.40;3.17;;;5.20;99.90;;;6.18;75.86;101080.31;4996100;28;20038;-80
2021/03/16 03:46:03;;;;;;;15.43;2.13;;;5.20;99.90;;;6.12;76.20;101086.31;4994093;28;20035;-81
2021/03/16 03:48:30;;;;;;;17.67;3.25;;;5.20;99.90;;;6.10;76.06;101088.59;4995457;28;20053;-80
2021/03/16 03:50:59;;;;;;;17.52;2.28;;;5.20;99.90;;;6.10;75.42;101088.59;4995372;28;20042;-80
2021/03/16 03:53:29;;;;;;;11.75;2.45;;;5.20;99.90;;;6.10;75.23;101091.38;4995811;28;20038;-80
2021/03/16 03:55:57;;;;;;;12.75;2.70;;;5.20;99.90;;;6.14;74.88;101095.13;4995214;28;20027;-81
2021/03/16 03:58:24;;;;;;;19.85;2.63;;;5.20;99.90;;;6.15;75.06;101099.53;5010005;28;20097;-81
2021/03/16 04:00:51;;;;;;;18.30;2.33;;;5.20;99.90;;;6.13;74.66;101099.84;4993506;28;20042;-82
2021/03/16 04:03:18;;;;;;;17.63;2.78;;;5.20;99.90;;;6.18;74.83;101091.41;4995667;28;20030;-80
2021/03/16 04:05:50;;;;;;;18.83;2.17;;;5.20;99.90;;;6.18;74.82;101098.91;4995999;28;20102;-81
2021/03/16 04:08:18;;;;;;;19.38;1.95;;;5.20;99.90;;;6.18;75.58;101096.97;5010326;28;20533;-84
2021/03/16 04:10:43;;;;;;;13.55;2.38;;;5.20;99.90;;;6.15;75.80;101097.59;4994975;28;20070;-80
2021/03/16 04:13:10;;;;;;;18.15;3.05;;;5.20;99.90;;;6.22;75.22;101097.16;4994049;28;20061;-83
2021/03/16 04:15:37;;;;;;;20.42;3.65;;;5.20;99.90;;;6.20;75.76;101094.69;4995573;28;20031;-83
2021/03/16 04:18:04;;;;;;;10.45;2.47;;;5.20;99.90;;;6.21;76.27;101092.72;4995494;28;20049;-81
2021/03/16 04:20:30;;;;;;;17.30;2.70;;;5.20;99.90;;;6.18;76.66;101108.06;4993674;28;20548;-83
2021/03/16 04:22:56;;;;;;;15.35;3.13;;;5.20;99.90;;;6.17;76.90;101103.63;4995697;28;20026;-81
2021/03/16 04:25:22;;;;;;;14.07;2.28;;;5.20;99.90;;;6.20;77.34;101105.78;4997312;28;20034;-81
2021/03/16 04:27:48;;;;;;;15.07;2.53;;;5.20;99.90;;;6.16;77.09;101109.50;4995087;28;20026;-81
2021/03/16 04:30:15;;;;;;;13.02;2.60;;;5.10;99.90;;;6.16;77.40;101120.59;4995859;28;20486;-83
2021/03/16 04:32:41;;;;;;;15.13;2.58;;;5.10;99.90;;;6.15;77.69;101119.78;4996370;28;20038;-82
2021/03/16 04:35:08;;;;;;;23.63;3.20;;;5.20;99.90;;;6.21;77.89;101121.28;4996831;28;20497;-82
2021/03/16 04:37:34;;;;;;;15.43;3.25;;;5.20;99.90;;;6.15;78.40;101119.78;5012088;28;20086;-79
2021/03/16 04:39:59;;;;;;;17.50;3.10;;;5.20;99.90;;;6.10;78.98;101122.69;5010104;28;20053;-82
2021/03/16 04:42:25;;;;;;;17.70;3.33;;;5.20;99.90;;;6.09;79.77;101123.00;4993304;28;20084;-82
2021/03/16 04:44:51;;;;;;;16.48;2.72;;;5.10;99.90;;;6.08;79.86;101124.13;4995118;28;20107;-81
2021/03/16 04:47:17;;;;;;;16.20;2.63;;;5.10;99.90;;;6.12;80.11;101131.50;4994928;28;20065;-83
2021/03/16 04:49:42;;;;;;;17.73;3.20;;;5.10;99.90;;;6.09;79.79;101126.59;4993662;28;20031;-82
2021/03/16 04:52:08;;;;;;;19.15;3.00;;;5.20;99.90;;;6.13;80.25;101135.91;4994973;28;20038;-82
2021/03/16 04:54:34;;;;;;;16.08;2.90;;;5.20;99.90;;;6.10;80.44;101139.31;4995106;28;20030;-81
2021/03/16 04:57:00;;;;;;;10.70;2.33;;;5.20;99.90;;;6.14;79.93;101151.41;4993967;28;20057;-82
2021/03/16 04:59:26;;;;;;;20.67;3.67;;;5.20;99.90;;;6.18;80.53;101146.06;4993432;28;20026;-82
2021/03/16 05:01:52;;;;;;;18.05;2.97;;;5.20;99.90;;;6.16;80.01;101149.16;4994015;28;20045;-83
2021/03/16 05:04:17;;;;;;;15.88;2.42;;;5.20;99.90;;;6.14;80.63;101148.66;4995149;28;20069;-81
2021/03/16 05:06:43;;;;;;;18.10;2.65;;;5.20;99.90;;;6.18;80.61;101154.38;4994747;28;20057;-83
2021/03/16 05:09:10;;;;;;;9.93;3.03;;;5.20;99.90;;;6.15;81.22;101152.25;4974894;28;20063;-80
2021/03/16 05:11:36;;;;;;;10.43;2.60;;;5.20;99.90;;;6.10;81.21;101150.41;4976083;28;20053;-83
2021/03/16 05:14:02;;;;;;;15.80;3.03;;;5.10;99.90;;;6.16;81.17;101151.13;4975984;28;20039;-82
2021/03/16 05:16:28;;;;;;;14.23;2.78;;;5.10;99.90;;;6.12;80.90;101161.19;4976612;28;20073;-82
2021/03/16 05:18:54;;;;;;;11.70;3.28;;;5.10;99.90;;;6.10;80.67;101158.72;4975988;28;20031;-84
2021/03/16 05:21:20;;;;;;;18.33;3.22;;;5.10;99.90;;;6.07;81.04;101164.13;4991096;28;20045;-83
2021/03/16 05:23:46;;;;;;;17.30;2.78;;;5.10;99.90;;;6.10;80.65;101160.72;4976352;28;20391;-84
2021/03/16 05:26:12;;;;;;;15.50;2.85;;;5.10;99.90;;;6.03;80.00;101168.66;4991747;28;20125;-82
2021/03/16 05:28:38;;;;;;;14.82;2.55;;;5.00;99.90;;;6.07;78.98;101164.13;4976797;28;20035;-82
2021/03/16 05:31:03;;;;;;;12.55;2.85;;;5.10;99.90;;;6.12;78.20;101175.06;4975099;28;20038;-80
2021/03/16 05:33:29;;;;;;;15.15;2.83;;;5.10;99.90;;;6.18;77.56;101173.81;4977334;28;20047;-83
2021/03/16 05:35:55;;;;;;;11.27;2.28;;;5.20;99.90;;;6.12;78.15;101172.28;4976177;28;20022;-83
2021/03/16 05:38:22;;;;;;;16.88;2.67;;;5.20;99.90;;;6.13;77.65;101185.81;4991291;28;20035;-83
2021/03/16 05:40:48;;;;;;;16.65;3.05;;;5.10;99.90;;;6.11;76.38;101179.78;4979118;28;20055;-81
2021/03/16 05:43:15;;;;;;;12.45;1.98;;;5.10;99.90;;;6.15;76.11;101191.06;4988437;28;20054;-84
2021/03/16 05:45:41;;;;;;;9.98;2.50;;;5.20;99.90;;;6.21;75.63;101187.84;4987866;28;20098;-82
2021/03/16 05:48:10;;;;;;;13.50;3.00;;;5.20;99.90;;;6.20;76.14;101190.94;4997976;28;20386;-82
2021/03/16 05:50:37;;;;;;;13.07;2.53;;;5.20;99.90;;;6.15;76.24;101188.31;4981048;28;20030;-84
2021/03/16 05:53:05;;;;;;;9.63;2.47;;;5.10;99.90;;;6.17;76.36;101194.34;4979987;28;20027;-83
2021/03/16 05:55:32;;;;;;;17.00;3.17;;;5.10;99.90;;;6.19;76.58;101201.22;4980417;28;20482;-84
2021/03/16 05:57:59;;;;;;;11.18;1.77;;;5.10;99.90;;;6.15;77.14;101202.16;4981393;28;20033;-84
2021/03/16 06:00:26;;;;;;;15.10;2.10;;;5.10;99.90;;;6.17;76.19;101203.47;4979202;28;20027;-83
2021/03/16 06:02:51;;;;;;;15.73;3.55;;;5.10;99.90;;;6.20;76.19;101205.63;4981072;28;20030;-85
2021/03/16 06:05:17;;;;;;;10.02;1.77;;;5.10;99.90;;;6.19;77.13;101200.41;4983383;28;20026;-85
2021/03/16 06:07:50;;;;;;;9.63;1.90;;;5.10;99.90;;;6.17;76.72;101208.22;5013874;28;20040;-84
2021/03/16 06:10:21;;;;;;;14.07;1.88;;;5.10;99.90;;;6.21;76.70;101207.28;5010240;28;20029;-83
2021/03/16 06:12:48;;;;;;;18.40;2.97;;;5.10;99.90;;;6.25;76.57;101205.50;5015350;28;20029;-83
2021/03/16 06:15:18;;;;;;;11.02;2.35;;;5.20;99.90;;;6.26;76.25;101212.69;5016035;28;20463;-83
2021/03/16 06:17:51;;;;;;;16.17;2.40;;;5.20;99.90;;;6.27;76.83;101205.19;5007435;28;20125;-82
2021/03/16 06:20:29;;;;;;;15.40;3.97;;;5.20;99.90;;;6.26;76.54;101214.66;5001907;28;20053;-82
2021/03/16 06:23:13;;;;;;;13.75;2.47;;;5.20;99.90;;;6.24;76.91;101217.75;5001032;28;20371;-82
2021/03/16 06:25:43;;;;;;;13.27;2.30;;;5.20;99.90;;;6.17;76.67;101211.81;5010386;28;20046;-84
2021/03/16 06:28:11;;;;;;;16.20;2.28;;;5.20;99.90;;;6.31;76.88;101218.13;4989139;28;20034;-82
2021/03/16 06:30:40;;;;;;;14.27;2.78;;;5.30;99.90;;;6.27;77.28;101228.19;4998697;28;20126;-83
2021/03/16 06:33:25;;;;;;;12.02;2.33;;;5.30;99.90;;;6.34;77.23;101223.03;4982025;28;20031;-84
2021/03/16 06:36:29;;;;;;;15.80;2.63;;;5.30;99.90;;;6.36;77.24;101217.97;4997775;28;20081;-84
2021/03/16 06:38:56;;;;;;;12.38;3.35;;;5.40;99.90;;;6.33;77.46;101220.56;4989365;28;20121;-83
2021/03/16 06:41:25;;;;;;;20.02;2.83;;;5.40;99.90;;;6.36;77.03;101217.97;4981394;28;20030;-82
2021/03/16 06:44:04;;;;;;;11.55;2.15;;;5.40;99.90;;;6.40;77.72;101223.72;4998319;28;20058;-83
2021/03/16 06:46:34;;;;;;;17.02;2.42;;;5.50;99.90;;;6.41;77.52;101224.53;4998190;28;20145;-82
2021/03/16 06:49:15;;;;;;;9.77;1.98;;;5.40;99.90;;;6.50;77.12;101225.41;4996948;28;20034;-83
2021/03/16 06:51:41;;;;;;;20.77;4.25;;;5.50;99.90;;;6.54;77.06;101229.19;4979321;28;20035;-83
2021/03/16 06:54:14;;;;;;;12.15;2.50;;;5.60;99.90;;;6.49;77.17;101234.88;4982213;28;20035;-83
2021/03/16 06:56:40;;;;;;;15.38;3.17;;;5.60;99.90;;;6.52;77.56;101229.50;4980446;28;20045;-81
2021/03/16 06:59:20;;;;;;;13.00;2.95;;;5.60;99.90;;;6.54;77.21;101243.91;4982088;28;20034;-83
2021/03/16 07:01:46;;;;;;;17.55;2.78;;;5.60;99.90;;;6.54;77.83;101232.81;4982216;28;20050;-82
2021/03/16 07:04:19;;;;;;;15.18;2.10;;;5.60;99.90;;;6.47;77.93;101243.53;4983695;28;20031;-83
2021/03/16 07:06:46;;;;;;;14.35;2.80;;;5.70;99.90;;;6.48;78.19;101245.16;4983261;28;20039;-84
2021/03/16 07:09:16;;;;;;;7.45;1.48;;;5.60;99.90;;;6.39;78.77;101240.69;5001385;28;20042;-82
2021/03/16 07:11:52;;;;;;;11.35;2.13;;;5.60;99.90;;;6.40;79.45;101242.31;5017023;28;20038;-84
2021/03/16 07:14:21;;;;;;;11.50;2.08;;;5.60;99.90;;;6.44;79.43;101243.34;5001620;28;20022;-81
2021/03/16 07:16:50;;;;;;;15.80;2.80;;;5.60;99.90;;;6.58;78.83;101247.66;5001272;28;20026;-82
2021/03/16 07:19:24;;;;;;;9.45;2.65;;;5.70;99.90;;;6.65;78.46;101238.88;5001334;28;20454;-82
2021/03/16 07:21:53;;;;;;;12.82;2.20;;;5.80;99.90;;;6.70;78.41;101239.59;5003413;28;20030;-82
2021/03/16 07:24:30;;;;;;;23.77;4.95;;;5.90;99.90;;;6.69;77.51;101254.59;5018353;28;20418;-84
2021/03/16 07:27:08;;;;;;;16.70;3.97;;;5.90;99.90;;;6.79;76.71;101243.22;5001281;28;20030;-82
2021/03/16 07:29:38;;;;;;;21.70;6.38;;;6.00;99.90;;;6.89;76.77;101248.50;5002655;28;20053;-83
2021/03/16 07:32:07;;;;;;;14.23;4.32;;;6.00;99.90;;;7.06;76.14;101249.75;5017849;28;20030;-83
2021/03/16 07:34:34;;;;;;;12.35;3.08;;;6.00;99.90;;;7.09;74.23;101252.69;5020382;28;20124;-81
2021/03/16 07:37:03;;;;;;;21.38;6.15;;;6.20;99.90;;;7.17;73.91;101257.47;5007094;28;20018;-84
2021/03/16 07:39:30;;;;;;;17.15;4.90;;;6.20;99.90;;;7.26;73.61;101258.31;5005247;28;20019;-83
2021/03/16 07:41:56;;;;;;;19.70;4.90;;;6.20;99.90;;;7.23;73.27;101266.47;5019033;28;20146;-85
2021/03/16 07:44:22;;;;;;;13.43;3.47;;;6.20;99.90;;;7.28;73.28;101260.78;5003180;28;20050;-82
2021/03/16 07:47:01;;;;;;;12.05;2.78;;;6.20;99.90;;;7.34;72.34;101256.72;5019026;28;20136;-83
2021/03/16 07:49:41;;;;;;;23.77;7.75;;;6.30;99.90;;;7.72;72.08;101263.34;5001424;28;20030;-82
2021/03/16 07:52:24;;;;;;;9.93;2.88;;;6.60;99.90;;;8.05;69.12;101260.13;5002706;28;20081;-85
2021/03/16 07:54:54;;;;;;;12.57;2.55;;;6.90;99.90;;;7.82;68.63;101267.78;5001908;28;20057;-83
2021/03/16 07:57:32;;;;;;;11.60;2.70;;;7.00;99.90;;;7.88;67.96;101264.53;5023378;28;20022;-84
2021/03/16 08:00:06;;;;;;;12.02;2.17;;;7.00;99.90;;;8.41;67.95;101260.66;5015875;28;20038;-84
2021/03/16 08:02:35;;;;;;;11.38;2.10;;;7.40;99.90;;;8.51;66.76;101265.84;5018278;28;20065;-84
2021/03/16 08:05:16;;;;;;;11.50;2.55;;;7.50;99.90;;;8.42;66.77;101267.81;5009424;28;20105;-82
2021/03/16 08:07:43;;;;;;;14.13;2.65;;;7.50;99.90;;;8.15;67.82;101274.53;5003364;28;20116;-82
2021/03/16 08:10:11;;;;;;;13.77;2.22;;;7.30;99.90;;;7.95;68.13;101272.38;5005678;28;20026;-82
2021/03/16 08:12:38;;;;;;;8.30;2.08;;;7.20;99.90;;;7.75;66.81;101273.81;5006292;28;20372;-82
2021/03/16 08:15:15;;;;;;;8.85;2.28;;;7.00;99.90;;;8.29;65.62;101283.56;5005436;28;20030;-82
2021/03/16 08:17:41;;;;;;;9.13;2.63;;;7.30;99.90;;;8.87;64.36;101280.22;5005354;28;20116;-84
2021/03/16 08:20:08;;;;;;;10.50;2.58;;;7.80;99.90;;;9.50;63.34;101289.66;5005682;28;20125;-83
2021/03/16 08:22:34;;;;;;;8.82;1.95;;;8.30;99.90;;;9.72;61.96;101285.78;5021527;28;20031;-83
2021/03/16 08:25:05;;;;;;;9.98;2.47;;;8.60;99.90;;;10.47;60.56;101285.56;5005466;28;20496;-83
2021/03/16 08:27:35;;;;;;;10.95;2.72;;;9.10;99.90;;;11.04;57.81;101282.06;5006058;28;20033;-82
2021/03/16 08:30:07;;;;;;;8.88;1.92;;;9.60;99.90;;;10.90;56.92;101282.34;5005069;28;20050;-82
2021/03/16 08:32:36;;;;;;;7.55;1.85;;;9.70;99.90;;;10.18;58.41;101288.44;5006724;28;20030;-85
2021/03/16 08:35:03;;;;;;;10.48;2.13;;;9.30;99.90;;;9.45;60.92;101287.88;5006952;28;20018;-83
2021/03/16 08:37:36;;;;;;;12.25;2.00;;;8.70;99.90;;;9.05;62.22;101285.75;5006590;28;20027;-83
2021/03/16 08:40:04;;;;;;;6.90;1.75;;;8.30;99.90;;;8.63;63.49;101288.31;5006474;28;20038;-83
2021/03/16 08:42:30;;;;;;;11.63;2.30;;;7.90;99.90;;;8.59;63.99;101292.88;5004923;28;20026;-82
2021/03/16 08:44:57;;;;;;;7.63;1.20;;;7.80;99.90;;;8.07;63.59;101291.19;5022489;28;20053;-82
2021/03/16 08:47:27;;;;;;;7.13;1.73;;;7.30;99.90;;;7.95;63.92;101292.69;5004463;28;20034;-83
2021/03/16 08:49:56;;;;;;;7.57;1.52;;;7.20;99.90;;;8.13;63.40;101287.13;5020760;28;20034;-83
2021/03/16 08:52:28;;;;;;;7.18;2.30;;;7.30;99.90;;;8.27;64.89;101287.78;5020887;28;20037;-83
2021/03/16 08:55:00;;;;;;;11.45;2.30;;;7.30;99.90;;;8.33;65.08;101290.13;5004149;28;20034;-83
2021/03/16 08:57:31;;;;;;;8.90;3.10;;;7.30;99.90;;;8.48;64.45;101291.56;5004142;28;20023;-83
2021/03/16 09:00:01;;;;;;;10.48;3.03;;;7.50;99.90;;;9.02;62.98;101290.81;5003440;28;20031;-83
2021/03/16 09:02:34;;;;;;;8.00;1.73;;;7.80;99.90;;;8.86;63.18;101286.13;5015732;28;20371;-85
2021/03/16 09:05:00;;;;;;;14.30;3.38;;;8.00;99.90;;;8.80;62.36;101291.03;4998672;28;20101;-85
2021/03/16 09:07:38;;;;;;;10.40;3.25;;;8.00;99.90;;;8.71;63.31;101292.19;4998153;28;20157;-84
2021/03/16 09:10:13;;;;;;;9.55;2.78;;;7.80;99.90;;;9.13;62.78;101298.81;5014478;28;20042;-83
2021/03/16 09:12:45;;;;;;;9.00;2.13;;;8.10;99.90;;;9.48;61.88;101298.34;4998910;28;20045;-84
2021/03/16 09:15:27;;;;;;;14.82;4.43;;;8.30;99.90;;;9.16;61.47;101298.97;5000290;28;20033;-84
2021/03/16 09:18:05;;;;;;;5.72;1.70;;;8.30;99.90;;;9.31;61.23;101292.84;5015550;28;20033;-84
2021/03/16 09:20:39;;;;;;;9.40;1.90;;;8.30;99.90;;;9.24;59.87;101300.94;4998621;28;20038;-85
2021/03/16 09:23:11;;;;;;;9.02;2.22;;;8.40;99.90;;;9.45;59.64;101292.63;5015613;28;20030;-85
2021/03/16 09:25:46;;;;;;;10.68;1.70;;;8.40;99.90;;;9.60;60.65;101299.63;5014399;28;20045;-84
2021/03/16 09:28:16;;;;;;;7.30;1.70;;;8.50;99.90;;;9.58;59.04;101299.94;4998609;28;20343;-84
2021/03/16 09:30:50;;;;;;;6.07;1.98;;;8.60;99.90;;;9.73;58.33;101290.22;5014668;28;20318;-82
2021/03/16 09:33:21;;;;;;;5.15;1.67;;;8.60;99.90;;;9.49;58.74;101294.44;5015599;28;20026;-84
2021/03/16 09:36:03;;;;;;;9.23;1.88;;;8.60;99.90;;;9.58;59.58;101290.75;4998239;28;20031;-84
2021/03/16 09:38:30;;;;;;;10.48;1.75;;;8.40;99.90;;;9.62;59.03;101286.97;5002504;28;20050;-83
2021/03/16 09:40:57;;;;;;;4.60;1.35;;;8.60;99.90;;;9.70;57.70;101291.69;4999375;28;20040;-85
2021/03/16 09:43:26;;;;;;;4.82;1.80;;;8.70;99.90;;;10.01;57.52;101292.16;4999802;28;20043;-85
2021/03/16 09:46:10;;;;;;;13.73;3.00;;;9.00;99.90;;;10.92;55.66;101301.56;5000281;28;20058;-85
2021/03/16 09:48:50;;;;;;;8.07;2.75;;;9.60;99.90;;;11.13;55.07;101282.75;4998193;28;20026;-85
2021/03/16 09:51:25;;;;;;;18.13;11.55;;;9.90;99.90;;;10.40;56.15;101295.66;4998297;28;20031;-86
2021/03/16 09:53:59;;;;;;;11.83;5.23;;;9.70;99.90;;;9.96;57.01;101294.31;5000721;28;20038;-84
2021/03/16 09:56:30;;;;;;;10.70;1.65;;;9.20;99.90;;;9.39;57.62;101283.66;5016326;28;20344;-84
2021/03/16 09:59:00;;;;;;;5.85;1.85;;;8.80;99.90;;;9.43;58.63;101290.19;5015838;28;20097;-87
2021/03/16 10:01:26;;;;;;;7.13;1.63;;;8.70;99.90;;;9.65;57.73;101297.47;5013977;28;20034;-84
2021/03/16 10:04:01;;;;;;;6.88;1.35;;;8.70;99.90;;;9.79;57.96;101286.06;4997118;28;20042;-84
2021/03/16 10:06:42;;;;;;;7.22;1.17;;;8.80;99.90;;;10.70;56.06;101297.19;4996846;28;20037;-84
2021/03/16 10:09:23;;;;;;;9.90;1.45;;;9.40;99.90;;;11.61;53.36;101288.41;4979353;28;20031;-84
2021/03/16 10:11:50;;;;;;;5.35;1.20;;;10.20;99.90;;;11.79;51.18;101286.19;4977757;28;20031;-83
2021/03/16 10:14:28;;;;;;;5.68;1.45;;;10.60;99.90;;;10.99;52.09;101279.47;4994729;28;20126;-84
2021/03/16 10:16:56;;;;;;;6.45;1.20;;;10.20;99.90;;;10.75;53.46;101285.81;4994718;28;20031;-86
2021/03/16 10:19:24;;;;;;;7.70;1.20;;;9.80;99.90;;;10.87;54.22;101285.03;5004162;28;20034;-81
2021/03/16 10:21:50;;;;;;;4.45;1.50;;;9.90;99.90;;;11.13;53.14;101281.94;4994061;28;20073;-83
2021/03/16 10:24:26;;;;;;;9.07;2.10;;;10.00;99.90;;;10.58;54.81;101274.78;4978992;28;20114;-83
2021/03/16 10:26:59;;;;;;;6.68;1.60;;;9.70;99.90;;;10.61;55.43;101284.47;4979180;28;20140;-85
2021/03/16 10:29:24;;;;;;;7.93;1.60;;;9.70;99.90;;;11.16;54.90;101287.66;4980253;28;20050;-83
2021/03/16 10:31:50;;;;;;;11.82;2.08;;;10.00;99.90;;;10.94;54.47;101294.50;4981485;28;20491;-84
2021/03/16 10:34:16;;;;;;;5.50;1.75;;;10.00;99.90;;;10.75;54.77;101293.38;4983996;28;20023;-83